sensor_id;sensor_type;location;lat;lon;timestamp;temperature;humidity
9987;DHT22;5033;46.310;11.214;2023-05-23T00:01:49;19.00;99.90
9987;DHT22;5033;46.310;11.214;2023-05-23T00:04:19;18.90;99.90
9987;DHT22;5033;46.310;11.214;2023-05-23T00:06:46;18.80;99.90
9987;DHT22;5033;46.310;11.214;2023-05-23T00:09:15;18.70;99.90
9987;DHT22;5033;46.310;11.214;2023-05-23T00:11:43;18.70;99.90
9987;DHT22;5033;46.310;11.214;2023-05-23T00:14:10;18.60;99.90
9987;DHT22;5033;46.310;11.214;2023-05-23T00:16:39;18.60;99.90
9987;DHT22;5033;46.310;11.214;2023-05-23T00:19:07;18.60;99.90
9987;DHT22;5033;46.310;11.214;2023-05-23T00:21:34;18.60;99.90
9987;DHT22;5033;46.310;11.214;2023-05-23T00:24:01;18.60;99.90
9987;DHT22;5033;46.310;11.214;2023-05-23T00:26:29;18.60;99.90
9987;DHT22;5033;46.310;11.214;2023-05-23T00:28:58;18.60;99.90
9987;DHT22;5033;46.310;11.214;2023-05-23T00:31:25;18.60;99.90
9987;DHT22;5033;46.310;11.214;2023-05-23T00:33:52;18.60;99.90
9987;DHT22;5033;46.310;11.214;2023-05-23T00:36:19;18.70;99.90
9987;DHT22;5033;46.310;11.214;2023-05-23T00:38:46;18.70;99.90
9987;DHT22;5033;46.310;11.214;2023-05-23T00:41:13;18.70;99.90
9987;DHT22;5033;46.310;11.214;2023-05-23T00:43:43;18.70;99.90
9987;DHT22;5033;46.310;11.214;2023-05-23T00:46:11;18.70;99.90
9987;DHT22;5033;46.310;11.214;2023-05-23T00:48:38;18.70;99.90
9987;DHT22;5033;46.310;11.214;2023-05-23T00:51:05;18.70;99.90
9987;DHT22;5033;46.310;11.214;2023-05-23T00:53:33;18.70;99.90
9987;DHT22;5033;46.310;11.214;2023-05-23T00:56:01;18.70;99.90
9987;DHT22;5033;46.310;11.214;2023-05-23T00:58:28;18.60;99.90
9987;DHT22;5033;46.310;11.214;2023-05-23T01:00:55;18.60;99.90
9987;DHT22;5033;46.310;11.214;2023-05-23T01:03:23;18.60;99.90
9987;DHT22;5033;46.310;11.214;2023-05-23T01:05:53;18.60;99.90
9987;DHT22;5033;46.310;11.214;2023-05-23T01:08:20;18.50;99.90
9987;DHT22;5033;46.310;11.214;2023-05-23T01:10:48;18.40;99.90
9987;DHT22;5033;46.310;11.214;2023-05-23T01:13:21;18.40;99.90
9987;DHT22;5033;46.310;11.214;2023-05-23T01:15:54;18.40;99.90
9987;DHT22;5033;46.310;11.214;2023-05-23T01:18:34;18.30;99.90
9987;DHT22;5033;46.310;11.214;2023-05-23T01:21:06;18.30;99.90
9987;DHT22;5033;46.310;11.214;2023-05-23T01:24:11;18.30;99.90
9987;DHT22;5033;46.310;11.214;2023-05-23T01:26:55;18.30;99.90
9987;DHT22;5033;46.310;11.214;2023-05-23T01:29:31;18.30;99.90
9987;DHT22;5033;46.310;11.214;2023-05-23T01:31:59;18.30;99.90
9987;DHT22;5033;46.310;11.214;2023-05-23T01:34:28;18.20;99.90
9987;DHT22;5033;46.310;11.214;2023-05-23T01:36:56;18.20;99.90
9987;DHT22;5033;46.310;11.214;2023-05-23T01:39:23;18.20;99.90
9987;DHT22;5033;46.310;11.214;2023-05-23T01:41:50;18.20;99.90
9987;DHT22;5033;46.310;11.214;2023-05-23T01:44:18;18.20;99.90
9987;DHT22;5033;46.310;11.214;2023-05-23T01:46:47;18.20;99.90
9987;DHT22;5033;46.310;11.214;2023-05-23T01:49:15;18.10;99.90
9987;DHT22;5033;46.310;11.214;2023-05-23T01:51:44;18.10;99.90
9987;DHT22;5033;46.310;11.214;2023-05-23T01:54:13;18.10;99.90
9987;DHT22;5033;46.310;11.214;2023-05-23T01:56:41;18.00;99.90
9987;DHT22;5033;46.310;11.214;2023-05-23T01:59:09;18.00;99.90
9987;DHT22;5033;46.310;11.214;2023-05-23T02:01:36;18.00;99.90
9987;DHT22;5033;46.310;11.214;2023-05-23T02:04:05;17.90;99.90
9987;DHT22;5033;46.310;11.214;2023-05-23T02:06:32;18.00;99.90
9987;DHT22;5033;46.310;11.214;2023-05-23T02:08:59;17.90;99.90
9987;DHT22;5033;46.310;11.214;2023-05-23T02:11:26;17.90;99.90
9987;DHT22;5033;46.310;11.214;2023-05-23T02:13:53;17.90;99.90
9987;DHT22;5033;46.310;11.214;2023-05-23T02:16:20;17.90;99.90
9987;DHT22;5033;46.310;11.214;2023-05-23T02:18:47;17.90;99.90
9987;DHT22;5033;46.310;11.214;2023-05-23T02:21:18;17.90;99.90
9987;DHT22;5033;46.310;11.214;2023-05-23T02:23:45;18.00;99.90
9987;DHT22;5033;46.310;11.214;2023-05-23T02:26:12;18.00;99.90
9987;DHT22;5033;46.310;11.214;2023-05-23T02:28:39;18.00;99.90
9987;DHT22;5033;46.310;11.214;2023-05-23T02:31:06;18.00;99.90
9987;DHT22;5033;46.310;11.214;2023-05-23T02:33:33;18.00;99.90
9987;DHT22;5033;46.310;11.214;2023-05-23T02:36:00;18.00;99.90
9987;DHT22;5033;46.310;11.214;2023-05-23T02:38:29;18.00;99.90
9987;DHT22;5033;46.310;11.214;2023-05-23T02:40:56;17.90;99.90
9987;DHT22;5033;46.310;11.214;2023-05-23T02:43:23;17.90;99.90
9987;DHT22;5033;46.310;11.214;2023-05-23T02:45:50;17.90;99.90
9987;DHT22;5033;46.310;11.214;2023-05-23T02:48:17;17.90;99.90
9987;DHT22;5033;46.310;11.214;2023-05-23T02:50:44;17.80;99.90
9987;DHT22;5033;46.310;11.214;2023-05-23T02:53:11;17.70;99.90
9987;DHT22;5033;46.310;11.214;2023-05-23T02:55:39;17.60;99.90
9987;DHT22;5033;46.310;11.214;2023-05-23T02:58:07;17.60;99.90
9987;DHT22;5033;46.310;11.214;2023-05-23T03:00:35;17.60;99.90
9987;DHT22;5033;46.310;11.214;2023-05-23T03:03:02;17.60;99.90
9987;DHT22;5033;46.310;11.214;2023-05-23T03:05:29;17.60;99.90
9987;DHT22;5033;46.310;11.214;2023-05-23T03:07:56;17.60;99.90
9987;DHT22;5033;46.310;11.214;2023-05-23T03:10:23;17.60;99.90
9987;DHT22;5033;46.310;11.214;2023-05-23T03:12:51;17.50;99.90
9987;DHT22;5033;46.310;11.214;2023-05-23T03:15:18;17.50;99.90
9987;DHT22;5033;46.310;11.214;2023-05-23T03:17:45;17.50;99.90
9987;DHT22;5033;46.310;11.214;2023-05-23T03:20:12;17.40;99.90
9987;DHT22;5033;46.310;11.214;2023-05-23T03:22:39;17.40;99.90
9987;DHT22;5033;46.310;11.214;2023-05-23T03:25:08;17.40;99.90
9987;DHT22;5033;46.310;11.214;2023-05-23T03:27:35;17.40;99.90
9987;DHT22;5033;46.310;11.214;2023-05-23T03:30:04;17.30;99.90
9987;DHT22;5033;46.310;11.214;2023-05-23T03:32:31;17.30;99.90
9987;DHT22;5033;46.310;11.214;2023-05-23T03:34:58;17.30;99.90
9987;DHT22;5033;46.310;11.214;2023-05-23T03:37:25;17.30;99.90
9987;DHT22;5033;46.310;11.214;2023-05-23T03:39:52;17.30;99.90
9987;DHT22;5033;46.310;11.214;2023-05-23T03:42:19;17.30;99.90
9987;DHT22;5033;46.310;11.214;2023-05-23T03:44:46;17.30;99.90
9987;DHT22;5033;46.310;11.214;2023-05-23T03:47:14;17.20;99.90
9987;DHT22;5033;46.310;11.214;2023-05-23T03:49:41;17.20;99.90
9987;DHT22;5033;46.310;11.214;2023-05-23T03:52:09;17.10;99.90
9987;DHT22;5033;46.310;11.214;2023-05-23T03:54:36;17.20;99.90
9987;DHT22;5033;46.310;11.214;2023-05-23T03:57:04;17.10;99.90
9987;DHT22;5033;46.310;11.214;2023-05-23T03:59:31;17.10;99.90
9987;DHT22;5033;46.310;11.214;2023-05-23T04:01:58;17.20;99.90
9987;DHT22;5033;46.310;11.214;2023-05-23T04:04:27;17.20;99.90
9987;DHT22;5033;46.310;11.214;2023-05-23T04:06:55;17.30;99.90
9987;DHT22;5033;46.310;11.214;2023-05-23T04:09:23;17.30;99.90
9987;DHT22;5033;46.310;11.214;2023-05-23T04:11:50;17.30;99.90
9987;DHT22;5033;46.310;11.214;2023-05-23T04:14:17;17.40;99.90
9987;DHT22;5033;46.310;11.214;2023-05-23T04:16:47;17.40;99.90
9987;DHT22;5033;46.310;11.214;2023-05-23T04:19:13;17.40;99.90
9987;DHT22;5033;46.310;11.214;2023-05-23T04:21:42;17.40;99.90
9987;DHT22;5033;46.310;11.214;2023-05-23T04:24:09;17.30;99.90
9987;DHT22;5033;46.310;11.214;2023-05-23T04:26:36;17.30;99.90
9987;DHT22;5033;46.310;11.214;2023-05-23T04:29:04;17.20;99.90
9987;DHT22;5033;46.310;11.214;2023-05-23T04:31:31;17.20;99.90
9987;DHT22;5033;46.310;11.214;2023-05-23T04:33:59;17.20;99.90
9987;DHT22;5033;46.310;11.214;2023-05-23T04:36:26;17.30;99.90
9987;DHT22;5033;46.310;11.214;2023-05-23T04:38:56;17.30;99.90
9987;DHT22;5033;46.310;11.214;2023-05-23T04:41:23;17.30;99.90
9987;DHT22;5033;46.310;11.214;2023-05-23T04:43:50;17.30;99.90
9987;DHT22;5033;46.310;11.214;2023-05-23T04:46:19;17.30;99.90
9987;DHT22;5033;46.310;11.214;2023-05-23T04:48:51;17.40;99.90
9987;DHT22;5033;46.310;11.214;2023-05-23T04:51:18;17.40;99.90
9987;DHT22;5033;46.310;11.214;2023-05-23T04:53:46;17.40;99.90
9987;DHT22;5033;46.310;11.214;2023-05-23T04:56:15;17.40;99.90
9987;DHT22;5033;46.310;11.214;2023-05-23T04:58:45;17.40;99.90
9987;DHT22;5033;46.310;11.214;2023-05-23T05:01:12;17.40;99.90
9987;DHT22;5033;46.310;11.214;2023-05-23T05:03:40;17.40;99.90
9987;DHT22;5033;46.310;11.214;2023-05-23T05:06:07;17.30;99.90
9987;DHT22;5033;46.310;11.214;2023-05-23T05:08:34;17.30;99.90
9987;DHT22;5033;46.310;11.214;2023-05-23T05:11:01;17.30;99.90
9987;DHT22;5033;46.310;11.214;2023-05-23T05:13:30;17.20;99.90
9987;DHT22;5033;46.310;11.214;2023-05-23T05:15:57;17.30;99.90
9987;DHT22;5033;46.310;11.214;2023-05-23T05:18:25;17.30;99.90
9987;DHT22;5033;46.310;11.214;2023-05-23T05:20:52;17.40;99.90
9987;DHT22;5033;46.310;11.214;2023-05-23T05:23:24;17.60;99.90
9987;DHT22;5033;46.310;11.214;2023-05-23T05:25:53;17.90;99.90
9987;DHT22;5033;46.310;11.214;2023-05-23T05:28:21;18.00;99.90
9987;DHT22;5033;46.310;11.214;2023-05-23T05:30:49;18.20;99.90
9987;DHT22;5033;46.310;11.214;2023-05-23T05:33:18;18.20;99.90
9987;DHT22;5033;46.310;11.214;2023-05-23T05:35:47;18.10;99.90
9987;DHT22;5033;46.310;11.214;2023-05-23T05:38:14;18.10;99.90
9987;DHT22;5033;46.310;11.214;2023-05-23T05:40:41;18.20;99.90
9987;DHT22;5033;46.310;11.214;2023-05-23T05:43:08;18.30;99.90
9987;DHT22;5033;46.310;11.214;2023-05-23T05:45:35;18.40;99.90
9987;DHT22;5033;46.310;11.214;2023-05-23T05:48:04;18.50;99.90
9987;DHT22;5033;46.310;11.214;2023-05-23T05:50:31;18.50;99.90
9987;DHT22;5033;46.310;11.214;2023-05-23T05:52:58;18.60;99.90
9987;DHT22;5033;46.310;11.214;2023-05-23T05:55:24;18.60;99.90
9987;DHT22;5033;46.310;11.214;2023-05-23T05:57:51;18.70;99.90
9987;DHT22;5033;46.310;11.214;2023-05-23T06:00:19;18.80;99.90
9987;DHT22;5033;46.310;11.214;2023-05-23T06:02:47;18.90;99.90
9987;DHT22;5033;46.310;11.214;2023-05-23T06:05:17;18.80;99.90
9987;DHT22;5033;46.310;11.214;2023-05-23T06:07:46;18.90;99.90
9987;DHT22;5033;46.310;11.214;2023-05-23T06:10:13;19.00;99.90
9987;DHT22;5033;46.310;11.214;2023-05-23T06:12:40;19.10;99.90
9987;DHT22;5033;46.310;11.214;2023-05-23T06:15:08;19.30;99.90
9987;DHT22;5033;46.310;11.214;2023-05-23T06:17:35;19.30;99.90
9987;DHT22;5033;46.310;11.214;2023-05-23T06:20:03;19.30;99.90
9987;DHT22;5033;46.310;11.214;2023-05-23T06:22:31;19.30;99.90
9987;DHT22;5033;46.310;11.214;2023-05-23T06:24:58;19.30;99.90
9987;DHT22;5033;46.310;11.214;2023-05-23T06:27:25;19.30;99.90
9987;DHT22;5033;46.310;11.214;2023-05-23T06:29:52;19.60;99.90
9987;DHT22;5033;46.310;11.214;2023-05-23T06:32:19;19.70;99.90
9987;DHT22;5033;46.310;11.214;2023-05-23T06:34:46;19.90;99.90
9987;DHT22;5033;46.310;11.214;2023-05-23T06:37:13;20.00;99.90
9987;DHT22;5033;46.310;11.214;2023-05-23T06:39:42;20.40;99.90
9987;DHT22;5033;46.310;11.214;2023-05-23T06:42:09;20.60;99.90
9987;DHT22;5033;46.310;11.214;2023-05-23T06:44:36;20.60;99.90
9987;DHT22;5033;46.310;11.214;2023-05-23T06:47:03;20.30;99.90
9987;DHT22;5033;46.310;11.214;2023-05-23T06:49:30;20.40;99.90
9987;DHT22;5033;46.310;11.214;2023-05-23T06:51:57;20.50;99.90
9987;DHT22;5033;46.310;11.214;2023-05-23T06:54:24;20.60;99.90
9987;DHT22;5033;46.310;11.214;2023-05-23T06:56:52;20.70;99.90
9987;DHT22;5033;46.310;11.214;2023-05-23T06:59:19;20.90;99.90
9987;DHT22;5033;46.310;11.214;2023-05-23T07:01:46;21.10;99.90
9987;DHT22;5033;46.310;11.214;2023-05-23T07:04:13;21.10;99.90
9987;DHT22;5033;46.310;11.214;2023-05-23T07:06:40;21.20;99.90
9987;DHT22;5033;46.310;11.214;2023-05-23T07:09:07;21.40;99.90
9987;DHT22;5033;46.310;11.214;2023-05-23T07:11:36;21.50;99.90
9987;DHT22;5033;46.310;11.214;2023-05-23T07:14:05;21.50;99.90
9987;DHT22;5033;46.310;11.214;2023-05-23T07:16:32;21.60;99.90
9987;DHT22;5033;46.310;11.214;2023-05-23T07:19:00;21.70;99.90
9987;DHT22;5033;46.310;11.214;2023-05-23T07:21:29;21.80;99.90
9987;DHT22;5033;46.310;11.214;2023-05-23T07:23:57;22.00;99.90
9987;DHT22;5033;46.310;11.214;2023-05-23T07:26:24;22.00;99.90
9987;DHT22;5033;46.310;11.214;2023-05-23T07:28:52;22.00;99.90
9987;DHT22;5033;46.310;11.214;2023-05-23T07:31:20;22.10;99.90
9987;DHT22;5033;46.310;11.214;2023-05-23T07:33:47;22.20;99.90
9987;DHT22;5033;46.310;11.214;2023-05-23T07:36:14;22.30;99.90
9987;DHT22;5033;46.310;11.214;2023-05-23T07:38:41;22.40;99.90
9987;DHT22;5033;46.310;11.214;2023-05-23T07:41:08;22.50;99.90
9987;DHT22;5033;46.310;11.214;2023-05-23T07:43:35;22.70;99.90
9987;DHT22;5033;46.310;11.214;2023-05-23T07:46:01;22.90;99.90
9987;DHT22;5033;46.310;11.214;2023-05-23T07:48:31;23.00;99.90
9987;DHT22;5033;46.310;11.214;2023-05-23T07:50:58;23.10;99.90
9987;DHT22;5033;46.310;11.214;2023-05-23T07:53:25;23.10;99.90
9987;DHT22;5033;46.310;11.214;2023-05-23T07:55:52;23.10;99.90
9987;DHT22;5033;46.310;11.214;2023-05-23T07:58:19;23.10;99.90
9987;DHT22;5033;46.310;11.214;2023-05-23T08:00:47;23.20;99.90
9987;DHT22;5033;46.310;11.214;2023-05-23T08:03:15;23.40;99.90
9987;DHT22;5033;46.310;11.214;2023-05-23T08:05:45;23.50;99.90
9987;DHT22;5033;46.310;11.214;2023-05-23T08:08:12;23.50;99.90
9987;DHT22;5033;46.310;11.214;2023-05-23T08:10:39;23.60;99.90
9987;DHT22;5033;46.310;11.214;2023-05-23T08:13:08;23.60;99.90
9987;DHT22;5033;46.310;11.214;2023-05-23T08:15:35;23.70;99.90
9987;DHT22;5033;46.310;11.214;2023-05-23T08:18:04;23.80;99.90
9987;DHT22;5033;46.310;11.214;2023-05-23T08:20:33;24.00;99.90
9987;DHT22;5033;46.310;11.214;2023-05-23T08:23:01;24.00;99.90
9987;DHT22;5033;46.310;11.214;2023-05-23T08:25:32;23.90;99.90
9987;DHT22;5033;46.310;11.214;2023-05-23T08:28:00;23.90;99.90
9987;DHT22;5033;46.310;11.214;2023-05-23T08:30:28;24.00;99.90
9987;DHT22;5033;46.310;11.214;2023-05-23T08:32:56;24.10;99.90
9987;DHT22;5033;46.310;11.214;2023-05-23T08:35:25;24.10;99.90
9987;DHT22;5033;46.310;11.214;2023-05-23T08:38:20;24.20;99.90
9987;DHT22;5033;46.310;11.214;2023-05-23T08:40:54;24.40;99.90
9987;DHT22;5033;46.310;11.214;2023-05-23T08:46:43;24.40;99.90
9987;DHT22;5033;46.310;11.214;2023-05-23T08:49:12;24.40;99.90
9987;DHT22;5033;46.310;11.214;2023-05-23T08:51:46;24.50;99.90
9987;DHT22;5033;46.310;11.214;2023-05-23T08:54:28;24.50;99.90
9987;DHT22;5033;46.310;11.214;2023-05-23T08:56:57;24.70;99.90
9987;DHT22;5033;46.310;11.214;2023-05-23T08:59:25;24.90;99.90
9987;DHT22;5033;46.310;11.214;2023-05-23T09:01:54;25.00;99.90
9987;DHT22;5033;46.310;11.214;2023-05-23T09:04:22;25.00;99.90
9987;DHT22;5033;46.310;11.214;2023-05-23T09:06:49;24.80;99.90
9987;DHT22;5033;46.310;11.214;2023-05-23T09:09:17;24.70;99.90
9987;DHT22;5033;46.310;11.214;2023-05-23T09:11:45;24.80;99.90
9987;DHT22;5033;46.310;11.214;2023-05-23T09:14:12;25.10;99.90
9987;DHT22;5033;46.310;11.214;2023-05-23T09:16:45;25.20;99.90
9987;DHT22;5033;46.310;11.214;2023-05-23T09:19:13;25.40;99.90
9987;DHT22;5033;46.310;11.214;2023-05-23T09:21:42;25.50;99.90
9987;DHT22;5033;46.310;11.214;2023-05-23T09:24:09;25.70;99.90
9987;DHT22;5033;46.310;11.214;2023-05-23T09:26:37;25.80;99.90
9987;DHT22;5033;46.310;11.214;2023-05-23T09:29:06;25.90;99.90
9987;DHT22;5033;46.310;11.214;2023-05-23T09:31:33;26.20;99.90
9987;DHT22;5033;46.310;11.214;2023-05-23T09:34:00;26.40;99.90
9987;DHT22;5033;46.310;11.214;2023-05-23T09:36:28;26.40;99.90
9987;DHT22;5033;46.310;11.214;2023-05-23T09:39:01;26.50;99.90
9987;DHT22;5033;46.310;11.214;2023-05-23T09:41:31;26.50;99.90
9987;DHT22;5033;46.310;11.214;2023-05-23T09:44:07;26.60;99.90
9987;DHT22;5033;46.310;11.214;2023-05-23T09:46:36;26.60;99.90
9987;DHT22;5033;46.310;11.214;2023-05-23T09:49:15;26.80;99.90
9987;DHT22;5033;46.310;11.214;2023-05-23T09:51:43;27.10;99.90
9987;DHT22;5033;46.310;11.214;2023-05-23T09:54:22;27.00;99.90
9987;DHT22;5033;46.310;11.214;2023-05-23T09:56:51;26.90;99.90
9987;DHT22;5033;46.310;11.214;2023-05-23T09:59:21;26.80;99.90
9987;DHT22;5033;46.310;11.214;2023-05-23T10:01:51;26.80;99.90
9987;DHT22;5033;46.310;11.214;2023-05-23T10:04:21;26.80;99.90
9987;DHT22;5033;46.310;11.214;2023-05-23T10:06:50;27.10;99.90
9987;DHT22;5033;46.310;11.214;2023-05-23T10:09:20;27.30;99.90
9987;DHT22;5033;46.310;11.214;2023-05-23T10:15:14;27.40;99.90
9987;DHT22;5033;46.310;11.214;2023-05-23T10:17:52;27.40;99.90
9987;DHT22;5033;46.310;11.214;2023-05-23T10:20:25;27.80;99.90
9987;DHT22;5033;46.310;11.214;2023-05-23T10:22:54;28.00;99.90
9987;DHT22;5033;46.310;11.214;2023-05-23T10:25:21;28.00;99.90
9987;DHT22;5033;46.310;11.214;2023-05-23T10:27:52;28.00;99.90
9987;DHT22;5033;46.310;11.214;2023-05-23T10:30:25;28.00;99.90
9987;DHT22;5033;46.310;11.214;2023-05-23T10:32:52;28.00;99.90
9987;DHT22;5033;46.310;11.214;2023-05-23T10:35:23;28.10;99.90
9987;DHT22;5033;46.310;11.214;2023-05-23T10:37:55;28.30;99.90
9987;DHT22;5033;46.310;11.214;2023-05-23T10:40:33;28.40;99.90
9987;DHT22;5033;46.310;11.214;2023-05-23T10:43:09;28.40;99.90
9987;DHT22;5033;46.310;11.214;2023-05-23T10:45:41;28.40;99.90
9987;DHT22;5033;46.310;11.214;2023-05-23T10:48:19;28.30;99.90
9987;DHT22;5033;46.310;11.214;2023-05-23T10:51:01;28.30;99.90
9987;DHT22;5033;46.310;11.214;2023-05-23T10:53:28;28.50;99.90
9987;DHT22;5033;46.310;11.214;2023-05-23T10:55:56;28.60;99.90
9987;DHT22;5033;46.310;11.214;2023-05-23T10:58:22;28.80;99.90
9987;DHT22;5033;46.310;11.214;2023-05-23T11:00:52;28.90;99.90
9987;DHT22;5033;46.310;11.214;2023-05-23T11:03:30;29.10;99.90
9987;DHT22;5033;46.310;11.214;2023-05-23T11:05:58;28.90;99.90
9987;DHT22;5033;46.310;11.214;2023-05-23T11:08:26;28.90;99.90
9987;DHT22;5033;46.310;11.214;2023-05-23T11:10:57;29.10;99.90
9987;DHT22;5033;46.310;11.214;2023-05-23T11:13:24;29.00;99.90
9987;DHT22;5033;46.310;11.214;2023-05-23T11:15:53;29.00;99.90
9987;DHT22;5033;46.310;11.214;2023-05-23T11:18:22;28.60;99.90
9987;DHT22;5033;46.310;11.214;2023-05-23T11:20:51;28.10;99.90
9987;DHT22;5033;46.310;11.214;2023-05-23T11:23:19;28.00;99.90
9987;DHT22;5033;46.310;11.214;2023-05-23T11:25:48;28.30;99.90
9987;DHT22;5033;46.310;11.214;2023-05-23T11:28:16;28.60;99.90
9987;DHT22;5033;46.310;11.214;2023-05-23T11:30:43;28.70;99.90
9987;DHT22;5033;46.310;11.214;2023-05-23T11:33:15;28.60;99.90
9987;DHT22;5033;46.310;11.214;2023-05-23T11:35:45;28.50;99.90
9987;DHT22;5033;46.310;11.214;2023-05-23T11:38:13;28.50;99.90
9987;DHT22;5033;46.310;11.214;2023-05-23T11:40:42;28.70;99.90
9987;DHT22;5033;46.310;11.214;2023-05-23T11:43:12;28.80;99.90
9987;DHT22;5033;46.310;11.214;2023-05-23T11:45:40;29.10;99.90
9987;DHT22;5033;46.310;11.214;2023-05-23T11:48:08;29.40;99.90
9987;DHT22;5033;46.310;11.214;2023-05-23T11:50:44;29.50;99.90
9987;DHT22;5033;46.310;11.214;2023-05-23T11:53:12;29.70;99.90
9987;DHT22;5033;46.310;11.214;2023-05-23T11:55:47;29.90;99.90
9987;DHT22;5033;46.310;11.214;2023-05-23T11:58:15;29.80;99.90
9987;DHT22;5033;46.310;11.214;2023-05-23T12:00:43;29.10;99.90
9987;DHT22;5033;46.310;11.214;2023-05-23T12:03:10;28.50;99.90
9987;DHT22;5033;46.310;11.214;2023-05-23T12:05:37;28.00;99.90
9987;DHT22;5033;46.310;11.214;2023-05-23T12:08:05;27.50;99.90
9987;DHT22;5033;46.310;11.214;2023-05-23T12:10:32;27.00;99.90
9987;DHT22;5033;46.310;11.214;2023-05-23T12:12:59;26.60;99.90
9987;DHT22;5033;46.310;11.214;2023-05-23T12:15:26;26.40;99.90
9987;DHT22;5033;46.310;11.214;2023-05-23T12:17:56;26.20;99.90
9987;DHT22;5033;46.310;11.214;2023-05-23T12:20:24;26.00;99.90
9987;DHT22;5033;46.310;11.214;2023-05-23T12:22:53;25.90;99.90
9987;DHT22;5033;46.310;11.214;2023-05-23T12:25:21;25.80;99.90
9987;DHT22;5033;46.310;11.214;2023-05-23T12:27:48;25.50;99.90
9987;DHT22;5033;46.310;11.214;2023-05-23T12:30:16;25.00;99.90
9987;DHT22;5033;46.310;11.214;2023-05-23T12:32:44;24.60;99.90
9987;DHT22;5033;46.310;11.214;2023-05-23T12:35:12;24.30;99.90
9987;DHT22;5033;46.310;11.214;2023-05-23T12:37:39;24.10;99.90
9987;DHT22;5033;46.310;11.214;2023-05-23T12:40:12;23.90;99.90
9987;DHT22;5033;46.310;11.214;2023-05-23T12:42:50;23.70;99.90
9987;DHT22;5033;46.310;11.214;2023-05-23T12:45:18;23.70;99.90
9987;DHT22;5033;46.310;11.214;2023-05-23T12:47:45;23.50;99.90
9987;DHT22;5033;46.310;11.214;2023-05-23T12:50:12;23.50;99.90
9987;DHT22;5033;46.310;11.214;2023-05-23T12:52:39;23.30;99.90
9987;DHT22;5033;46.310;11.214;2023-05-23T12:55:07;23.10;99.90
9987;DHT22;5033;46.310;11.214;2023-05-23T12:57:34;22.80;99.90
9987;DHT22;5033;46.310;11.214;2023-05-23T13:00:04;22.60;99.90
9987;DHT22;5033;46.310;11.214;2023-05-23T13:02:32;22.50;99.90
9987;DHT22;5033;46.310;11.214;2023-05-23T13:04:59;22.50;99.90
9987;DHT22;5033;46.310;11.214;2023-05-23T13:07:26;22.50;99.90
9987;DHT22;5033;46.310;11.214;2023-05-23T13:09:53;22.50;99.90
9987;DHT22;5033;46.310;11.214;2023-05-23T13:12:20;22.50;99.90
9987;DHT22;5033;46.310;11.214;2023-05-23T13:14:48;22.60;99.90
9987;DHT22;5033;46.310;11.214;2023-05-23T13:17:16;22.70;99.90
9987;DHT22;5033;46.310;11.214;2023-05-23T13:19:45;22.70;99.90
9987;DHT22;5033;46.310;11.214;2023-05-23T13:22:12;22.80;99.90
9987;DHT22;5033;46.310;11.214;2023-05-23T13:24:39;22.90;99.90
9987;DHT22;5033;46.310;11.214;2023-05-23T13:27:08;23.00;99.90
9987;DHT22;5033;46.310;11.214;2023-05-23T13:29:35;23.00;99.90
9987;DHT22;5033;46.310;11.214;2023-05-23T13:32:02;23.00;99.90
9987;DHT22;5033;46.310;11.214;2023-05-23T13:34:30;23.00;99.90
9987;DHT22;5033;46.310;11.214;2023-05-23T13:36:59;23.00;99.90
9987;DHT22;5033;46.310;11.214;2023-05-23T13:39:26;22.90;99.90
9987;DHT22;5033;46.310;11.214;2023-05-23T13:41:53;22.90;99.90
9987;DHT22;5033;46.310;11.214;2023-05-23T13:44:20;22.90;99.90
9987;DHT22;5033;46.310;11.214;2023-05-23T13:46:47;22.90;99.90
9987;DHT22;5033;46.310;11.214;2023-05-23T13:49:14;22.50;99.90
9987;DHT22;5033;46.310;11.214;2023-05-23T13:51:42;22.20;99.90
9987;DHT22;5033;46.310;11.214;2023-05-23T13:54:09;21.90;99.90
9987;DHT22;5033;46.310;11.214;2023-05-23T13:56:37;21.70;99.90
9987;DHT22;5033;46.310;11.214;2023-05-23T13:59:04;21.40;99.90
9987;DHT22;5033;46.310;11.214;2023-05-23T14:01:31;21.30;99.90
9987;DHT22;5033;46.310;11.214;2023-05-23T14:03:58;21.20;99.90
9987;DHT22;5033;46.310;11.214;2023-05-23T14:06:25;21.30;99.90
9987;DHT22;5033;46.310;11.214;2023-05-23T14:08:53;21.50;99.90
9987;DHT22;5033;46.310;11.214;2023-05-23T14:11:21;21.60;99.90
9987;DHT22;5033;46.310;11.214;2023-05-23T14:13:51;21.80;99.90
9987;DHT22;5033;46.310;11.214;2023-05-23T14:16:18;21.80;99.90
9987;DHT22;5033;46.310;11.214;2023-05-23T14:18:45;21.80;99.90
9987;DHT22;5033;46.310;11.214;2023-05-23T14:21:12;21.80;99.90
9987;DHT22;5033;46.310;11.214;2023-05-23T14:23:39;21.90;99.90
9987;DHT22;5033;46.310;11.214;2023-05-23T14:26:07;22.00;99.90
9987;DHT22;5033;46.310;11.214;2023-05-23T14:28:34;22.10;99.90
9987;DHT22;5033;46.310;11.214;2023-05-23T14:31:01;22.20;99.90
9987;DHT22;5033;46.310;11.214;2023-05-23T14:33:28;22.30;99.90
9987;DHT22;5033;46.310;11.214;2023-05-23T14:35:55;22.40;99.90
9987;DHT22;5033;46.310;11.214;2023-05-23T14:38:22;22.60;99.90
9987;DHT22;5033;46.310;11.214;2023-05-23T14:40:49;22.60;99.90
9987;DHT22;5033;46.310;11.214;2023-05-23T14:43:17;22.70;99.90
9987;DHT22;5033;46.310;11.214;2023-05-23T14:45:44;22.80;99.90
9987;DHT22;5033;46.310;11.214;2023-05-23T14:48:11;23.00;99.90
9987;DHT22;5033;46.310;11.214;2023-05-23T14:50:38;23.20;99.90
9987;DHT22;5033;46.310;11.214;2023-05-23T14:53:05;23.50;99.90
9987;DHT22;5033;46.310;11.214;2023-05-23T14:55:32;23.70;99.90
9987;DHT22;5033;46.310;11.214;2023-05-23T14:57:59;24.00;99.90
9987;DHT22;5033;46.310;11.214;2023-05-23T15:00:29;24.20;99.90
9987;DHT22;5033;46.310;11.214;2023-05-23T15:02:56;24.40;99.90
9987;DHT22;5033;46.310;11.214;2023-05-23T15:05:23;24.50;99.90
9987;DHT22;5033;46.310;11.214;2023-05-23T15:07:50;24.70;99.90
9987;DHT22;5033;46.310;11.214;2023-05-23T15:10:17;24.70;99.90
9987;DHT22;5033;46.310;11.214;2023-05-23T15:12:44;24.60;99.90
9987;DHT22;5033;46.310;11.214;2023-05-23T15:15:11;24.60;99.90
9987;DHT22;5033;46.310;11.214;2023-05-23T15:17:39;24.70;99.90
9987;DHT22;5033;46.310;11.214;2023-05-23T15:20:07;24.70;99.90
9987;DHT22;5033;46.310;11.214;2023-05-23T15:22:34;24.80;99.90
9987;DHT22;5033;46.310;11.214;2023-05-23T15:25:02;24.80;99.90
9987;DHT22;5033;46.310;11.214;2023-05-23T15:27:29;24.90;99.90
9987;DHT22;5033;46.310;11.214;2023-05-23T15:29:56;24.90;99.90
9987;DHT22;5033;46.310;11.214;2023-05-23T15:32:22;24.80;99.90
9987;DHT22;5033;46.310;11.214;2023-05-23T15:34:51;24.80;99.90
9987;DHT22;5033;46.310;11.214;2023-05-23T15:37:18;24.80;99.90
9987;DHT22;5033;46.310;11.214;2023-05-23T15:39:45;24.80;99.90
9987;DHT22;5033;46.310;11.214;2023-05-23T15:42:13;25.00;99.90
9987;DHT22;5033;46.310;11.214;2023-05-23T15:44:40;25.10;99.90
9987;DHT22;5033;46.310;11.214;2023-05-23T15:47:07;25.20;99.90
9987;DHT22;5033;46.310;11.214;2023-05-23T15:49:34;25.30;99.90
9987;DHT22;5033;46.310;11.214;2023-05-23T15:52:03;25.30;99.90
9987;DHT22;5033;46.310;11.214;2023-05-23T15:54:30;25.10;99.90
9987;DHT22;5033;46.310;11.214;2023-05-23T15:56:57;25.00;99.90
9987;DHT22;5033;46.310;11.214;2023-05-23T15:59:23;24.90;99.90